sensor_id;sensor_type;location;lat;lon;timestamp;P1;durP1;ratioP1;P2;durP2;ratioP2
64208;SDS011;50527;52.414;13.226;2022-08-03T00:01:20;5.55;;;1.30;;
64208;SDS011;50527;52.414;13.226;2022-08-03T00:03:46;3.60;;;1.13;;
64208;SDS011;50527;52.414;13.226;2022-08-03T00:06:11;4.07;;;1.30;;
64208;SDS011;50527;52.414;13.226;2022-08-03T00:08:37;4.55;;;1.20;;
64208;SDS011;50527;52.414;13.226;2022-08-03T00:11:02;7.10;;;1.17;;
64208;SDS011;50527;52.414;13.226;2022-08-03T00:13:28;4.43;;;1.15;;
64208;SDS011;50527;52.414;13.226;2022-08-03T00:15:53;6.55;;;1.13;;
64208;SDS011;50527;52.414;13.226;2022-08-03T00:18:19;4.60;;;1.30;;
64208;SDS011;50527;52.414;13.226;2022-08-03T00:20:45;4.30;;;1.25;;
64208;SDS011;50527;52.414;13.226;2022-08-03T00:23:10;5.95;;;1.10;;
64208;SDS011;50527;52.414;13.226;2022-08-03T00:25:36;4.65;;;1.20;;
64208;SDS011;50527;52.414;13.226;2022-08-03T00:28:02;3.85;;;1.15;;
64208;SDS011;50527;52.414;13.226;2022-08-03T00:30:28;5.88;;;1.33;;
64208;SDS011;50527;52.414;13.226;2022-08-03T00:32:54;5.28;;;1.33;;
64208;SDS011;50527;52.414;13.226;2022-08-03T00:35:20;4.28;;;1.00;;
64208;SDS011;50527;52.414;13.226;2022-08-03T00:37:45;6.13;;;1.42;;
64208;SDS011;50527;52.414;13.226;2022-08-03T00:40:11;1.83;;;1.10;;
64208;SDS011;50527;52.414;13.226;2022-08-03T00:42:52;3.08;;;1.10;;
64208;SDS011;50527;52.414;13.226;2022-08-03T00:45:20;2.92;;;1.13;;
64208;SDS011;50527;52.414;13.226;2022-08-03T00:47:50;3.40;;;1.17;;
64208;SDS011;50527;52.414;13.226;2022-08-03T00:50:16;3.97;;;1.50;;
64208;SDS011;50527;52.414;13.226;2022-08-03T00:52:42;3.55;;;1.17;;
64208;SDS011;50527;52.414;13.226;2022-08-03T00:55:09;4.75;;;1.40;;
64208;SDS011;50527;52.414;13.226;2022-08-03T00:57:35;3.35;;;1.27;;
64208;SDS011;50527;52.414;13.226;2022-08-03T01:00:02;5.20;;;1.10;;
64208;SDS011;50527;52.414;13.226;2022-08-03T01:02:29;3.65;;;1.20;;
64208;SDS011;50527;52.414;13.226;2022-08-03T01:04:55;3.50;;;1.00;;
64208;SDS011;50527;52.414;13.226;2022-08-03T01:07:26;2.95;;;1.10;;
64208;SDS011;50527;52.414;13.226;2022-08-03T01:09:59;3.20;;;1.25;;
64208;SDS011;50527;52.414;13.226;2022-08-03T01:15:56;2.67;;;1.00;;
64208;SDS011;50527;52.414;13.226;2022-08-03T01:21:23;2.33;;;1.17;;
64208;SDS011;50527;52.414;13.226;2022-08-03T01:24:02;4.70;;;1.10;;
64208;SDS011;50527;52.414;13.226;2022-08-03T01:26:50;2.53;;;1.10;;
64208;SDS011;50527;52.414;13.226;2022-08-03T01:29:39;3.67;;;1.17;;
64208;SDS011;50527;52.414;13.226;2022-08-03T01:32:16;4.75;;;0.95;;
64208;SDS011;50527;52.414;13.226;2022-08-03T01:34:54;2.35;;;1.10;;
64208;SDS011;50527;52.414;13.226;2022-08-03T01:37:25;3.65;;;1.17;;
64208;SDS011;50527;52.414;13.226;2022-08-03T01:40:01;6.15;;;1.30;;
64208;SDS011;50527;52.414;13.226;2022-08-03T01:42:29;3.75;;;1.23;;
64208;SDS011;50527;52.414;13.226;2022-08-03T01:44:56;5.32;;;1.30;;
64208;SDS011;50527;52.414;13.226;2022-08-03T01:47:24;4.32;;;1.10;;
64208;SDS011;50527;52.414;13.226;2022-08-03T01:49:51;4.20;;;1.20;;
64208;SDS011;50527;52.414;13.226;2022-08-03T01:52:18;4.53;;;1.10;;
64208;SDS011;50527;52.414;13.226;2022-08-03T01:54:46;3.00;;;1.00;;
64208;SDS011;50527;52.414;13.226;2022-08-03T01:57:15;4.10;;;1.27;;
64208;SDS011;50527;52.414;13.226;2022-08-03T01:59:41;3.13;;;1.33;;
64208;SDS011;50527;52.414;13.226;2022-08-03T02:02:09;4.43;;;1.20;;
64208;SDS011;50527;52.414;13.226;2022-08-03T02:04:37;2.28;;;1.05;;
64208;SDS011;50527;52.414;13.226;2022-08-03T02:07:03;4.15;;;0.98;;
64208;SDS011;50527;52.414;13.226;2022-08-03T02:09:31;4.53;;;1.13;;
64208;SDS011;50527;52.414;13.226;2022-08-03T02:11:58;2.35;;;1.20;;
64208;SDS011;50527;52.414;13.226;2022-08-03T02:14:24;4.55;;;1.27;;
64208;SDS011;50527;52.414;13.226;2022-08-03T02:16:52;2.47;;;1.10;;
64208;SDS011;50527;52.414;13.226;2022-08-03T02:19:19;4.93;;;1.23;;
64208;SDS011;50527;52.414;13.226;2022-08-03T02:21:45;3.33;;;1.40;;
64208;SDS011;50527;52.414;13.226;2022-08-03T02:24:12;3.97;;;1.30;;
64208;SDS011;50527;52.414;13.226;2022-08-03T02:26:38;3.35;;;1.23;;
64208;SDS011;50527;52.414;13.226;2022-08-03T02:29:06;3.95;;;1.30;;
64208;SDS011;50527;52.414;13.226;2022-08-03T02:31:39;2.55;;;0.90;;
64208;SDS011;50527;52.414;13.226;2022-08-03T02:34:08;3.15;;;1.13;;
64208;SDS011;50527;52.414;13.226;2022-08-03T02:36:37;2.40;;;1.20;;
64208;SDS011;50527;52.414;13.226;2022-08-03T02:39:04;2.88;;;1.30;;
64208;SDS011;50527;52.414;13.226;2022-08-03T02:41:34;2.47;;;1.13;;
64208;SDS011;50527;52.414;13.226;2022-08-03T02:44:08;5.67;;;1.23;;
64208;SDS011;50527;52.414;13.226;2022-08-03T02:46:36;4.13;;;1.20;;
64208;SDS011;50527;52.414;13.226;2022-08-03T02:49:05;6.30;;;1.40;;
64208;SDS011;50527;52.414;13.226;2022-08-03T02:51:33;5.72;;;1.50;;
64208;SDS011;50527;52.414;13.226;2022-08-03T02:54:01;2.80;;;1.17;;
64208;SDS011;50527;52.414;13.226;2022-08-03T02:56:27;5.07;;;1.30;;
64208;SDS011;50527;52.414;13.226;2022-08-03T02:58:55;3.03;;;1.20;;
64208;SDS011;50527;52.414;13.226;2022-08-03T03:01:23;3.00;;;1.40;;
64208;SDS011;50527;52.414;13.226;2022-08-03T03:03:50;3.03;;;1.10;;
64208;SDS011;50527;52.414;13.226;2022-08-03T03:06:17;2.60;;;1.20;;
64208;SDS011;50527;52.414;13.226;2022-08-03T03:08:44;6.60;;;1.30;;
64208;SDS011;50527;52.414;13.226;2022-08-03T03:11:11;6.20;;;1.67;;
64208;SDS011;50527;52.414;13.226;2022-08-03T03:13:38;9.60;;;1.40;;
64208;SDS011;50527;52.414;13.226;2022-08-03T03:16:06;3.92;;;1.35;;
64208;SDS011;50527;52.414;13.226;2022-08-03T03:18:33;3.72;;;1.20;;
64208;SDS011;50527;52.414;13.226;2022-08-03T03:20:59;2.63;;;1.38;;
64208;SDS011;50527;52.414;13.226;2022-08-03T03:23:26;4.75;;;1.50;;
64208;SDS011;50527;52.414;13.226;2022-08-03T03:25:53;4.85;;;1.40;;
64208;SDS011;50527;52.414;13.226;2022-08-03T03:28:20;2.58;;;1.10;;
64208;SDS011;50527;52.414;13.226;2022-08-03T03:30:47;4.15;;;1.48;;
64208;SDS011;50527;52.414;13.226;2022-08-03T03:33:13;5.10;;;1.42;;
64208;SDS011;50527;52.414;13.226;2022-08-03T03:35:39;3.42;;;1.40;;
64208;SDS011;50527;52.414;13.226;2022-08-03T03:38:06;4.43;;;1.50;;
64208;SDS011;50527;52.414;13.226;2022-08-03T03:40:33;3.25;;;1.42;;
64208;SDS011;50527;52.414;13.226;2022-08-03T03:43:00;3.15;;;1.40;;
64208;SDS011;50527;52.414;13.226;2022-08-03T03:45:26;4.00;;;1.63;;
64208;SDS011;50527;52.414;13.226;2022-08-03T03:47:52;6.07;;;1.50;;
64208;SDS011;50527;52.414;13.226;2022-08-03T03:50:18;4.07;;;1.30;;
64208;SDS011;50527;52.414;13.226;2022-08-03T03:52:46;2.35;;;1.20;;
64208;SDS011;50527;52.414;13.226;2022-08-03T03:55:14;7.47;;;1.40;;
64208;SDS011;50527;52.414;13.226;2022-08-03T03:57:40;2.72;;;1.10;;
64208;SDS011;50527;52.414;13.226;2022-08-03T04:00:06;7.30;;;1.30;;
64208;SDS011;50527;52.414;13.226;2022-08-03T04:02:32;3.63;;;1.27;;
64208;SDS011;50527;52.414;13.226;2022-08-03T04:04:57;2.10;;;1.10;;
64208;SDS011;50527;52.414;13.226;2022-08-03T04:07:52;3.30;;;1.40;;
64208;SDS011;50527;52.414;13.226;2022-08-03T04:10:42;3.05;;;1.20;;
64208;SDS011;50527;52.414;13.226;2022-08-03T04:13:24;3.17;;;1.30;;
64208;SDS011;50527;52.414;13.226;2022-08-03T04:15:55;2.20;;;1.20;;
64208;SDS011;50527;52.414;13.226;2022-08-03T04:18:22;3.05;;;1.20;;
64208;SDS011;50527;52.414;13.226;2022-08-03T04:20:48;4.20;;;1.52;;
64208;SDS011;50527;52.414;13.226;2022-08-03T04:23:15;6.68;;;1.15;;
64208;SDS011;50527;52.414;13.226;2022-08-03T04:25:45;3.08;;;1.27;;
64208;SDS011;50527;52.414;13.226;2022-08-03T04:28:12;3.72;;;1.27;;
64208;SDS011;50527;52.414;13.226;2022-08-03T04:30:40;2.47;;;1.20;;
64208;SDS011;50527;52.414;13.226;2022-08-03T04:33:11;2.20;;;1.10;;
64208;SDS011;50527;52.414;13.226;2022-08-03T04:35:38;2.47;;;1.15;;
64208;SDS011;50527;52.414;13.226;2022-08-03T04:38:05;2.08;;;1.02;;
64208;SDS011;50527;52.414;13.226;2022-08-03T04:40:33;3.90;;;1.10;;
64208;SDS011;50527;52.414;13.226;2022-08-03T04:43:00;2.75;;;1.20;;
64208;SDS011;50527;52.414;13.226;2022-08-03T04:45:27;2.38;;;1.13;;
64208;SDS011;50527;52.414;13.226;2022-08-03T04:47:54;3.75;;;1.30;;
64208;SDS011;50527;52.414;13.226;2022-08-03T04:50:21;4.60;;;1.20;;
64208;SDS011;50527;52.414;13.226;2022-08-03T04:52:47;3.67;;;1.20;;
64208;SDS011;50527;52.414;13.226;2022-08-03T04:55:24;5.53;;;1.30;;
64208;SDS011;50527;52.414;13.226;2022-08-03T04:57:53;4.40;;;1.38;;
64208;SDS011;50527;52.414;13.226;2022-08-03T05:00:18;3.72;;;1.20;;
64208;SDS011;50527;52.414;13.226;2022-08-03T05:02:44;3.78;;;1.17;;
64208;SDS011;50527;52.414;13.226;2022-08-03T05:05:09;4.30;;;1.35;;
64208;SDS011;50527;52.414;13.226;2022-08-03T05:07:36;4.03;;;1.20;;
64208;SDS011;50527;52.414;13.226;2022-08-03T05:10:03;6.03;;;1.20;;
64208;SDS011;50527;52.414;13.226;2022-08-03T05:12:32;5.75;;;1.40;;
64208;SDS011;50527;52.414;13.226;2022-08-03T05:14:58;5.47;;;1.10;;
64208;SDS011;50527;52.414;13.226;2022-08-03T05:17:23;5.03;;;0.95;;
64208;SDS011;50527;52.414;13.226;2022-08-03T05:19:49;6.75;;;1.27;;
64208;SDS011;50527;52.414;13.226;2022-08-03T05:22:14;12.13;;;1.20;;
64208;SDS011;50527;52.414;13.226;2022-08-03T05:24:40;6.82;;;1.10;;
64208;SDS011;50527;52.414;13.226;2022-08-03T05:27:05;6.82;;;1.00;;
64208;SDS011;50527;52.414;13.226;2022-08-03T05:29:31;20.42;;;1.65;;
64208;SDS011;50527;52.414;13.226;2022-08-03T05:31:56;4.72;;;1.10;;
64208;SDS011;50527;52.414;13.226;2022-08-03T05:34:22;5.05;;;1.15;;
64208;SDS011;50527;52.414;13.226;2022-08-03T05:36:47;12.90;;;1.20;;
64208;SDS011;50527;52.414;13.226;2022-08-03T05:39:12;3.63;;;1.00;;
64208;SDS011;50527;52.414;13.226;2022-08-03T05:41:38;4.50;;;0.90;;
64208;SDS011;50527;52.414;13.226;2022-08-03T05:44:04;3.97;;;0.73;;
64208;SDS011;50527;52.414;13.226;2022-08-03T05:46:29;6.55;;;1.02;;
64208;SDS011;50527;52.414;13.226;2022-08-03T05:48:55;3.38;;;1.05;;
64208;SDS011;50527;52.414;13.226;2022-08-03T05:51:21;4.03;;;0.70;;
64208;SDS011;50527;52.414;13.226;2022-08-03T05:53:46;4.13;;;0.68;;
64208;SDS011;50527;52.414;13.226;2022-08-03T05:56:12;4.07;;;0.75;;
64208;SDS011;50527;52.414;13.226;2022-08-03T05:58:37;5.80;;;0.80;;
64208;SDS011;50527;52.414;13.226;2022-08-03T06:01:03;13.02;;;1.35;;
64208;SDS011;50527;52.414;13.226;2022-08-03T06:03:28;2.33;;;0.80;;
64208;SDS011;50527;52.414;13.226;2022-08-03T06:05:54;8.50;;;0.90;;
64208;SDS011;50527;52.414;13.226;2022-08-03T06:08:22;3.00;;;0.60;;
64208;SDS011;50527;52.414;13.226;2022-08-03T06:10:48;1.52;;;0.40;;
64208;SDS011;50527;52.414;13.226;2022-08-03T06:13:14;5.10;;;0.63;;
64208;SDS011;50527;52.414;13.226;2022-08-03T06:15:39;2.63;;;0.50;;
64208;SDS011;50527;52.414;13.226;2022-08-03T06:18:06;2.90;;;0.50;;
64208;SDS011;50527;52.414;13.226;2022-08-03T06:20:32;2.35;;;0.70;;
64208;SDS011;50527;52.414;13.226;2022-08-03T06:22:57;6.80;;;0.65;;
64208;SDS011;50527;52.414;13.226;2022-08-03T06:25:24;18.58;;;0.98;;
64208;SDS011;50527;52.414;13.226;2022-08-03T06:27:50;3.13;;;0.68;;
64208;SDS011;50527;52.414;13.226;2022-08-03T06:30:15;1.38;;;0.38;;
64208;SDS011;50527;52.414;13.226;2022-08-03T06:32:41;1.55;;;0.40;;
64208;SDS011;50527;52.414;13.226;2022-08-03T06:35:07;3.53;;;0.73;;
64208;SDS011;50527;52.414;13.226;2022-08-03T06:37:40;1.98;;;0.52;;
64208;SDS011;50527;52.414;13.226;2022-08-03T06:40:07;1.75;;;0.40;;
64208;SDS011;50527;52.414;13.226;2022-08-03T06:42:33;3.08;;;0.65;;
64208;SDS011;50527;52.414;13.226;2022-08-03T06:44:59;0.90;;;0.38;;
64208;SDS011;50527;52.414;13.226;2022-08-03T06:47:24;4.03;;;0.45;;
64208;SDS011;50527;52.414;13.226;2022-08-03T06:49:49;4.38;;;1.45;;
64208;SDS011;50527;52.414;13.226;2022-08-03T06:52:15;3.47;;;0.50;;
64208;SDS011;50527;52.414;13.226;2022-08-03T06:54:40;2.53;;;0.40;;
64208;SDS011;50527;52.414;13.226;2022-08-03T06:57:06;2.03;;;0.50;;
64208;SDS011;50527;52.414;13.226;2022-08-03T06:59:32;3.65;;;0.40;;
64208;SDS011;50527;52.414;13.226;2022-08-03T07:01:57;2.85;;;0.60;;
64208;SDS011;50527;52.414;13.226;2022-08-03T07:04:23;7.13;;;0.73;;
64208;SDS011;50527;52.414;13.226;2022-08-03T07:06:48;4.05;;;0.40;;
64208;SDS011;50527;52.414;13.226;2022-08-03T07:09:14;5.15;;;0.45;;
64208;SDS011;50527;52.414;13.226;2022-08-03T07:11:39;3.65;;;0.40;;
64208;SDS011;50527;52.414;13.226;2022-08-03T07:14:05;5.63;;;0.68;;
64208;SDS011;50527;52.414;13.226;2022-08-03T07:16:31;1.55;;;0.30;;
64208;SDS011;50527;52.414;13.226;2022-08-03T07:18:56;1.67;;;0.47;;
64208;SDS011;50527;52.414;13.226;2022-08-03T07:21:22;3.13;;;0.43;;
64208;SDS011;50527;52.414;13.226;2022-08-03T07:23:48;0.95;;;0.38;;
64208;SDS011;50527;52.414;13.226;2022-08-03T07:26:13;3.50;;;0.90;;
64208;SDS011;50527;52.414;13.226;2022-08-03T07:28:39;2.65;;;0.60;;
64208;SDS011;50527;52.414;13.226;2022-08-03T07:31:04;2.78;;;0.60;;
64208;SDS011;50527;52.414;13.226;2022-08-03T07:33:30;8.15;;;0.50;;
64208;SDS011;50527;52.414;13.226;2022-08-03T07:35:55;3.83;;;0.55;;
64208;SDS011;50527;52.414;13.226;2022-08-03T07:38:21;0.82;;;0.40;;
64208;SDS011;50527;52.414;13.226;2022-08-03T07:40:46;1.48;;;0.40;;
64208;SDS011;50527;52.414;13.226;2022-08-03T07:43:12;4.60;;;0.35;;
64208;SDS011;50527;52.414;13.226;2022-08-03T07:45:37;2.50;;;0.50;;
64208;SDS011;50527;52.414;13.226;2022-08-03T07:48:03;1.52;;;0.50;;
64208;SDS011;50527;52.414;13.226;2022-08-03T07:50:28;0.88;;;0.30;;
64208;SDS011;50527;52.414;13.226;2022-08-03T07:52:54;5.47;;;0.32;;
64208;SDS011;50527;52.414;13.226;2022-08-03T07:55:22;2.38;;;0.40;;
64208;SDS011;50527;52.414;13.226;2022-08-03T07:57:59;0.95;;;0.35;;
64208;SDS011;50527;52.414;13.226;2022-08-03T08:00:26;2.10;;;0.50;;
64208;SDS011;50527;52.414;13.226;2022-08-03T08:02:51;2.30;;;0.38;;
64208;SDS011;50527;52.414;13.226;2022-08-03T08:05:17;2.47;;;0.40;;
64208;SDS011;50527;52.414;13.226;2022-08-03T08:07:42;2.80;;;0.40;;
64208;SDS011;50527;52.414;13.226;2022-08-03T08:10:08;1.92;;;0.40;;
64208;SDS011;50527;52.414;13.226;2022-08-03T08:12:34;1.13;;;0.30;;
64208;SDS011;50527;52.414;13.226;2022-08-03T08:15:00;1.10;;;0.30;;
64208;SDS011;50527;52.414;13.226;2022-08-03T08:17:26;4.13;;;0.50;;
64208;SDS011;50527;52.414;13.226;2022-08-03T08:19:52;3.03;;;0.40;;
64208;SDS011;50527;52.414;13.226;2022-08-03T08:22:17;3.58;;;0.52;;
64208;SDS011;50527;52.414;13.226;2022-08-03T08:24:43;2.10;;;0.40;;
64208;SDS011;50527;52.414;13.226;2022-08-03T08:27:09;1.25;;;0.40;;
64208;SDS011;50527;52.414;13.226;2022-08-03T08:29:36;4.75;;;0.40;;
64208;SDS011;50527;52.414;13.226;2022-08-03T08:32:02;2.75;;;0.43;;
64208;SDS011;50527;52.414;13.226;2022-08-03T08:34:27;1.20;;;0.45;;
64208;SDS011;50527;52.414;13.226;2022-08-03T08:36:53;2.53;;;0.30;;
64208;SDS011;50527;52.414;13.226;2022-08-03T08:39:18;4.03;;;0.40;;
64208;SDS011;50527;52.414;13.226;2022-08-03T08:41:44;2.08;;;0.50;;
64208;SDS011;50527;52.414;13.226;2022-08-03T08:44:09;1.38;;;0.20;;
64208;SDS011;50527;52.414;13.226;2022-08-03T08:46:35;0.75;;;0.30;;
64208;SDS011;50527;52.414;13.226;2022-08-03T08:49:02;1.58;;;0.40;;
64208;SDS011;50527;52.414;13.226;2022-08-03T08:51:31;1.15;;;0.38;;
64208;SDS011;50527;52.414;13.226;2022-08-03T08:54:01;1.13;;;0.30;;
64208;SDS011;50527;52.414;13.226;2022-08-03T08:56:31;4.20;;;0.30;;
64208;SDS011;50527;52.414;13.226;2022-08-03T08:58:58;1.63;;;0.35;;
64208;SDS011;50527;52.414;13.226;2022-08-03T09:01:24;2.53;;;0.57;;
64208;SDS011;50527;52.414;13.226;2022-08-03T09:03:50;7.63;;;0.55;;
64208;SDS011;50527;52.414;13.226;2022-08-03T09:06:17;4.05;;;0.47;;
64208;SDS011;50527;52.414;13.226;2022-08-03T09:08:43;1.00;;;0.35;;
64208;SDS011;50527;52.414;13.226;2022-08-03T09:11:09;5.45;;;0.43;;
64208;SDS011;50527;52.414;13.226;2022-08-03T09:13:34;1.20;;;0.25;;
64208;SDS011;50527;52.414;13.226;2022-08-03T09:16:10;2.78;;;0.30;;
64208;SDS011;50527;52.414;13.226;2022-08-03T09:18:44;1.38;;;0.38;;
64208;SDS011;50527;52.414;13.226;2022-08-03T09:21:16;1.40;;;0.30;;
64208;SDS011;50527;52.414;13.226;2022-08-03T09:23:51;2.55;;;0.40;;
64208;SDS011;50527;52.414;13.226;2022-08-03T09:26:19;2.60;;;0.30;;
64208;SDS011;50527;52.414;13.226;2022-08-03T09:28:58;3.90;;;0.50;;
64208;SDS011;50527;52.414;13.226;2022-08-03T09:31:30;0.70;;;0.30;;
64208;SDS011;50527;52.414;13.226;2022-08-03T09:34:04;0.88;;;0.20;;
64208;SDS011;50527;52.414;13.226;2022-08-03T09:39:09;1.75;;;0.30;;
64208;SDS011;50527;52.414;13.226;2022-08-03T09:44:02;1.45;;;0.20;;
64208;SDS011;50527;52.414;13.226;2022-08-03T09:46:28;0.98;;;0.20;;
64208;SDS011;50527;52.414;13.226;2022-08-03T09:49:10;1.55;;;0.20;;
64208;SDS011;50527;52.414;13.226;2022-08-03T09:51:37;1.92;;;0.20;;
64208;SDS011;50527;52.414;13.226;2022-08-03T09:54:03;2.22;;;0.30;;
64208;SDS011;50527;52.414;13.226;2022-08-03T09:56:36;0.85;;;0.20;;
64208;SDS011;50527;52.414;13.226;2022-08-03T09:59:09;2.65;;;0.57;;
64208;SDS011;50527;52.414;13.226;2022-08-03T10:01:36;1.33;;;0.22;;
64208;SDS011;50527;52.414;13.226;2022-08-03T10:04:05;1.27;;;0.30;;
64208;SDS011;50527;52.414;13.226;2022-08-03T10:06:37;2.35;;;0.40;;
64208;SDS011;50527;52.414;13.226;2022-08-03T10:09:06;1.23;;;0.30;;
64208;SDS011;50527;52.414;13.226;2022-08-03T10:11:34;2.63;;;0.20;;
64208;SDS011;50527;52.414;13.226;2022-08-03T10:14:04;0.63;;;0.20;;
64208;SDS011;50527;52.414;13.226;2022-08-03T10:16:32;1.25;;;0.20;;
64208;SDS011;50527;52.414;13.226;2022-08-03T10:19:00;1.50;;;0.25;;
64208;SDS011;50527;52.414;13.226;2022-08-03T10:21:27;0.43;;;0.10;;
64208;SDS011;50527;52.414;13.226;2022-08-03T10:24:03;0.88;;;0.32;;
64208;SDS011;50527;52.414;13.226;2022-08-03T10:26:31;1.47;;;0.40;;
64208;SDS011;50527;52.414;13.226;2022-08-03T10:28:59;1.48;;;0.20;;
64208;SDS011;50527;52.414;13.226;2022-08-03T10:31:30;0.85;;;0.20;;
64208;SDS011;50527;52.414;13.226;2022-08-03T10:34:02;1.00;;;0.20;;
64208;SDS011;50527;52.414;13.226;2022-08-03T10:36:30;2.42;;;0.25;;
64208;SDS011;50527;52.414;13.226;2022-08-03T10:39:00;1.38;;;0.20;;
64208;SDS011;50527;52.414;13.226;2022-08-03T10:41:30;3.42;;;0.30;;
64208;SDS011;50527;52.414;13.226;2022-08-03T10:44:09;1.60;;;0.30;;
64208;SDS011;50527;52.414;13.226;2022-08-03T10:46:39;5.15;;;0.40;;
64208;SDS011;50527;52.414;13.226;2022-08-03T10:49:07;1.13;;;0.32;;
64208;SDS011;50527;52.414;13.226;2022-08-03T10:51:36;4.47;;;0.40;;
64208;SDS011;50527;52.414;13.226;2022-08-03T10:54:01;2.70;;;0.50;;
64208;SDS011;50527;52.414;13.226;2022-08-03T11:02:10;0.90;;;0.20;;
64208;SDS011;50527;52.414;13.226;2022-08-03T11:04:37;1.15;;;0.30;;
64208;SDS011;50527;52.414;13.226;2022-08-03T11:09:52;0.80;;;0.30;;
64208;SDS011;50527;52.414;13.226;2022-08-03T11:12:24;4.00;;;0.33;;
64208;SDS011;50527;52.414;13.226;2022-08-03T11:14:54;0.50;;;0.20;;
64208;SDS011;50527;52.414;13.226;2022-08-03T11:17:21;1.95;;;0.20;;
64208;SDS011;50527;52.414;13.226;2022-08-03T11:19:48;3.60;;;0.40;;
64208;SDS011;50527;52.414;13.226;2022-08-03T11:22:15;1.48;;;0.40;;
64208;SDS011;50527;52.414;13.226;2022-08-03T11:40:38;0.90;;;0.30;;
64208;SDS011;50527;52.414;13.226;2022-08-03T11:45:56;0.45;;;0.30;;
64208;SDS011;50527;52.414;13.226;2022-08-03T11:48:26;3.80;;;0.40;;
64208;SDS011;50527;52.414;13.226;2022-08-03T11:50:57;1.50;;;0.40;;
64208;SDS011;50527;52.414;13.226;2022-08-03T11:53:23;1.83;;;0.50;;
64208;SDS011;50527;52.414;13.226;2022-08-03T11:55:48;3.28;;;0.40;;
64208;SDS011;50527;52.414;13.226;2022-08-03T11:58:15;1.63;;;0.40;;
64208;SDS011;50527;52.414;13.226;2022-08-03T12:00:44;1.85;;;0.60;;
64208;SDS011;50527;52.414;13.226;2022-08-03T12:03:11;1.58;;;0.57;;
64208;SDS011;50527;52.414;13.226;2022-08-03T12:05:39;1.88;;;0.40;;
64208;SDS011;50527;52.414;13.226;2022-08-03T12:08:07;1.65;;;0.30;;
64208;SDS011;50527;52.414;13.226;2022-08-03T12:10:34;1.13;;;0.30;;
64208;SDS011;50527;52.414;13.226;2022-08-03T12:13:02;2.35;;;0.40;;
64208;SDS011;50527;52.414;13.226;2022-08-03T12:15:35;2.00;;;0.45;;
64208;SDS011;50527;52.414;13.226;2022-08-03T12:18:02;4.22;;;0.40;;
64208;SDS011;50527;52.414;13.226;2022-08-03T12:20:36;1.92;;;0.55;;
64208;SDS011;50527;52.414;13.226;2022-08-03T12:23:03;1.13;;;0.40;;
64208;SDS011;50527;52.414;13.226;2022-08-03T12:25:30;2.17;;;0.40;;
64208;SDS011;50527;52.414;13.226;2022-08-03T12:28:07;3.10;;;0.40;;
64208;SDS011;50527;52.414;13.226;2022-08-03T12:30:43;3.60;;;0.43;;
64208;SDS011;50527;52.414;13.226;2022-08-03T12:35:44;3.85;;;0.40;;
64208;SDS011;50527;52.414;13.226;2022-08-03T12:38:18;1.48;;;0.40;;
64208;SDS011;50527;52.414;13.226;2022-08-03T12:40:59;1.08;;;0.30;;
64208;SDS011;50527;52.414;13.226;2022-08-03T12:43:28;2.03;;;0.35;;
64208;SDS011;50527;52.414;13.226;2022-08-03T12:46:07;1.73;;;0.40;;
64208;SDS011;50527;52.414;13.226;2022-08-03T12:54:20;2.45;;;0.40;;
64208;SDS011;50527;52.414;13.226;2022-08-03T13:01:58;3.38;;;1.02;;
64208;SDS011;50527;52.414;13.226;2022-08-03T13:04:25;0.80;;;0.38;;
64208;SDS011;50527;52.414;13.226;2022-08-03T13:07:01;1.50;;;0.28;;
64208;SDS011;50527;52.414;13.226;2022-08-03T13:09:47;2.00;;;0.40;;
64208;SDS011;50527;52.414;13.226;2022-08-03T13:12:18;3.13;;;0.32;;
64208;SDS011;50527;52.414;13.226;2022-08-03T13:14:48;1.88;;;0.32;;
64208;SDS011;50527;52.414;13.226;2022-08-03T13:17:15;2.08;;;0.45;;
64208;SDS011;50527;52.414;13.226;2022-08-03T13:19:41;0.40;;;0.30;;
64208;SDS011;50527;52.414;13.226;2022-08-03T13:22:11;2.45;;;0.35;;
64208;SDS011;50527;52.414;13.226;2022-08-03T13:24:39;1.05;;;0.45;;
64208;SDS011;50527;52.414;13.226;2022-08-03T13:27:05;0.60;;;0.40;;
64208;SDS011;50527;52.414;13.226;2022-08-03T13:29:31;1.92;;;0.30;;
64208;SDS011;50527;52.414;13.226;2022-08-03T13:31:58;6.13;;;0.40;;
64208;SDS011;50527;52.414;13.226;2022-08-03T13:34:23;4.25;;;0.60;;
64208;SDS011;50527;52.414;13.226;2022-08-03T13:36:49;4.30;;;0.30;;
64208;SDS011;50527;52.414;13.226;2022-08-03T13:39:14;2.65;;;0.47;;
64208;SDS011;50527;52.414;13.226;2022-08-03T13:41:40;2.65;;;0.50;;
64208;SDS011;50527;52.414;13.226;2022-08-03T13:44:05;1.40;;;0.30;;
64208;SDS011;50527;52.414;13.226;2022-08-03T13:46:31;1.02;;;0.30;;
64208;SDS011;50527;52.414;13.226;2022-08-03T13:48:56;1.05;;;0.20;;
64208;SDS011;50527;52.414;13.226;2022-08-03T13:51:22;1.58;;;0.40;;
64208;SDS011;50527;52.414;13.226;2022-08-03T13:53:48;0.38;;;0.15;;
64208;SDS011;50527;52.414;13.226;2022-08-03T13:56:14;1.70;;;0.40;;
64208;SDS011;50527;52.414;13.226;2022-08-03T13:58:39;0.45;;;0.30;;
64208;SDS011;50527;52.414;13.226;2022-08-03T14:01:05;3.05;;;0.30;;
64208;SDS011;50527;52.414;13.226;2022-08-03T14:03:30;0.52;;;0.22;;
64208;SDS011;50527;52.414;13.226;2022-08-03T14:05:56;1.98;;;0.60;;
64208;SDS011;50527;52.414;13.226;2022-08-03T14:08:21;0.43;;;0.30;;
64208;SDS011;50527;52.414;13.226;2022-08-03T14:10:47;1.38;;;0.30;;
64208;SDS011;50527;52.414;13.226;2022-08-03T14:13:12;3.22;;;0.60;;
64208;SDS011;50527;52.414;13.226;2022-08-03T14:15:39;3.53;;;0.40;;
64208;SDS011;50527;52.414;13.226;2022-08-03T14:18:06;0.57;;;0.28;;
64208;SDS011;50527;52.414;13.226;2022-08-03T14:20:32;1.02;;;0.30;;
64208;SDS011;50527;52.414;13.226;2022-08-03T14:22:57;0.85;;;0.40;;
64208;SDS011;50527;52.414;13.226;2022-08-03T14:25:23;2.65;;;0.32;;
64208;SDS011;50527;52.414;13.226;2022-08-03T14:27:48;2.78;;;0.40;;
64208;SDS011;50527;52.414;13.226;2022-08-03T14:30:14;3.03;;;0.40;;
64208;SDS011;50527;52.414;13.226;2022-08-03T14:32:40;1.10;;;0.32;;
64208;SDS011;50527;52.414;13.226;2022-08-03T14:35:06;5.88;;;0.55;;
64208;SDS011;50527;52.414;13.226;2022-08-03T14:37:32;0.73;;;0.40;;
64208;SDS011;50527;52.414;13.226;2022-08-03T14:39:58;6.15;;;0.63;;
64208;SDS011;50527;52.414;13.226;2022-08-03T14:42:23;2.03;;;0.30;;
64208;SDS011;50527;52.414;13.226;2022-08-03T14:44:49;23.15;;;1.30;;
64208;SDS011;50527;52.414;13.226;2022-08-03T14:47:14;3.83;;;0.55;;
64208;SDS011;50527;52.414;13.226;2022-08-03T14:49:40;3.30;;;0.40;;
64208;SDS011;50527;52.414;13.226;2022-08-03T14:52:06;1.10;;;0.40;;
64208;SDS011;50527;52.414;13.226;2022-08-03T14:54:32;2.83;;;0.40;;
64208;SDS011;50527;52.414;13.226;2022-08-03T14:56:57;1.48;;;0.38;;
64208;SDS011;50527;52.414;13.226;2022-08-03T14:59:24;1.00;;;0.30;;
64208;SDS011;50527;52.414;13.226;2022-08-03T15:01:49;0.60;;;0.30;;
64208;SDS011;50527;52.414;13.226;2022-08-03T15:04:15;2.67;;;0.30;;
64208;SDS011;50527;52.414;13.226;2022-08-03T15:06:41;2.53;;;0.30;;
64208;SDS011;50527;52.414;13.226;2022-08-03T15:09:06;5.28;;;0.63;;
64208;SDS011;50527;52.414;13.226;2022-08-03T15:11:31;6.85;;;0.40;;
64208;SDS011;50527;52.414;13.226;2022-08-03T15:13:57;1.90;;;0.50;;
64208;SDS011;50527;52.414;13.226;2022-08-03T15:16:22;2.80;;;0.50;;
64208;SDS011;50527;52.414;13.226;2022-08-03T15:18:48;4.00;;;0.60;;
64208;SDS011;50527;52.414;13.226;2022-08-03T15:21:13;5.63;;;0.40;;
64208;SDS011;50527;52.414;13.226;2022-08-03T15:23:39;6.57;;;0.70;;
64208;SDS011;50527;52.414;13.226;2022-08-03T15:26:04;1.83;;;0.40;;
64208;SDS011;50527;52.414;13.226;2022-08-03T15:28:30;0.95;;;0.40;;